Albright, West Virginia
Current Conditions -  °F | °C
As of 5:20 PM on Sunday 21 Dec 2014 (Local Time) from K2G4 Reporting Station
Overcast Overcast  
Wind Chill: -4°   Ceiling: 1900
Heat Index: -1°   Visibility: 10mi
Dew Point: -1°   Wind: 5mph
Humidity: 100%   Direction: 130°SE
Pressure: 30.15"   Gusts: NA
Location:  39.49°N, 79.64°W
Report Text: K2G4 212220Z AUTO 13004KT 10SM OVC019 M01/M01 A3015 RMK AO1
Loading
Personal Weather Stations






























Interactive Weather Map New forecast layout! Learn more

10-Day Weather Forecast

Advertisements
Track Severe Weather on mobile